| time (UTC) | temp F | wind direction | speed knots | gust knots | rain 1hr in | rain 24hr in | rain mn in | humidity % | barometer mb |
| 20260508033844 | 38 | 324 | 0.0 | 0.0 | 0.00 | 0.03 | 0.03 | 87 | 1017.4 |
| 20260508033342 | 39 | 324 | 0.0 | 0.0 | 0.00 | 0.03 | 0.03 | 87 | 1017.7 |
| 20260508032839 | 39 | 324 | 0.0 | 0.0 | 0.00 | 0.03 | 0.03 | 86 | 1017.4 |
| 20260508032337 | 39 | 324 | 0.0 | 0.0 | 0.00 | 0.03 | 0.03 | 86 | 1017.3 |
| 20260508031833 | 39 | 324 | 0.0 | 0.0 | 0.00 | 0.03 | 0.03 | 85 | 1017.4 |
| 20260508031330 | 39 | 324 | 0.0 | 0.0 | 0.00 | 0.03 | 0.03 | 85 | 1017.3 |
| 20260508030826 | 39 | 324 | 0.0 | 0.0 | 0.00 | 0.03 | 0.03 | 85 | 1017.3 |
| 20260508030324 | 40 | 323 | 0.0 | 0.0 | 0.00 | 0.03 | 0.03 | 84 | 1017.3 |
| 20260508025820 | 40 | 323 | 0.0 | 0.0 | 0.00 | 0.03 | 0.03 | 83 | 1017.0 |
| 20260508025318 | 40 | 323 | 0.0 | 0.0 | 0.00 | 0.03 | 0.03 | 83 | 1017.0 |
| 20260508024814 | 40 | 323 | 0.0 | 0.0 | 0.00 | 0.03 | 0.03 | 82 | 1017.2 |
| 20260508024310 | 41 | 323 | 0.0 | 0.0 | 0.00 | 0.03 | 0.03 | 81 | 1016.9 |
| 20260508023808 | 41 | 327 | 0.0 | 0.0 | 0.00 | 0.03 | 0.03 | 80 | 1017.0 |
| 20260508023304 | 42 | 327 | 0.0 | 0.0 | 0.00 | 0.03 | 0.03 | 79 | 1016.9 |
| 20260508022800 | 42 | 352 | 0.0 | 0.0 | 0.00 | 0.03 | 0.03 | 79 | 1016.9 |
| 20260508022257 | 42 | 345 | 0.0 | 0.0 | 0.00 | 0.03 | 0.03 | 79 | 1016.6 |
| 20260508021754 | 42 | 335 | 0.0 | 0.0 | 0.00 | 0.03 | 0.03 | 79 | 1016.8 |
| 20260508021249 | 43 | 338 | 0.0 | 0.0 | 0.00 | 0.03 | 0.03 | 79 | 1016.7 |
| 20260508020746 | 43 | 335 | 0.0 | 0.0 | 0.00 | 0.03 | 0.03 | 78 | 1016.6 |
| 20260508020244 | 43 | 339 | 0.0 | 0.0 | 0.00 | 0.03 | 0.03 | 77 | 1016.7 |
| 20260508015741 | 43 | 336 | 0.0 | 0.0 | 0.00 | 0.03 | 0.03 | 77 | 1016.6 |
| 20260508015238 | 44 | 336 | 0.0 | 0.0 | 0.00 | 0.03 | 0.03 | 76 | 1016.3 |
| 20260508014735 | 44 | 333 | 0.0 | 0.0 | 0.00 | 0.03 | 0.03 | 76 | 1016.4 |
| 20260508014232 | 44 | 329 | 0.0 | 0.0 | 0.00 | 0.03 | 0.03 | 77 | 1016.5 |
| 20260508013727 | 44 | 349 | 0.0 | 0.0 | 0.00 | 0.03 | 0.03 | 75 | 1016.3 |
| 20260508013224 | 45 | 342 | 0.0 | 0.0 | 0.00 | 0.03 | 0.03 | 74 | 1016.1 |
| 20260508012722 | 46 | 355 | 0.0 | 1.7 | 0.00 | 0.03 | 0.03 | 69 | 1016.0 |
| 20260508012218 | 46 | 333 | 0.9 | 0.9 | 0.00 | 0.03 | 0.03 | 68 | 1015.9 |
| 20260508011717 | 46 | 342 | 0.0 | 0.0 | 0.00 | 0.03 | 0.03 | 69 | 1015.7 |
| 20260508011214 | 47 | 307 | 0.0 | 0.0 | 0.00 | 0.03 | 0.03 | 68 | 1015.8 |
| 20260508010710 | 48 | 324 | 0.0 | 0.0 | 0.00 | 0.03 | 0.03 | 64 | 1015.8 |
| 20260508010208 | 48 | 337 | 0.0 | 1.7 | 0.00 | 0.03 | 0.03 | 61 | 1015.9 |
| 20260508005706 | 48 | 319 | 0.9 | 2.6 | 0.00 | 0.03 | 0.03 | 67 | 1015.7 |
| 20260508005202 | 48 | 326 | 1.7 | 1.7 | 0.00 | 0.03 | 0.03 | 68 | 1015.5 |
| 20260508004657 | 48 | 305 | 0.0 | 1.7 | 0.00 | 0.03 | 0.03 | 65 | 1015.7 |
| 20260508004154 | 48 | 326 | 0.9 | 2.6 | 0.00 | 0.03 | 0.03 | 68 | 1015.7 |
| 20260508003651 | 49 | 287 | 1.7 | 1.7 | 0.00 | 0.03 | 0.03 | 68 | 1015.3 |
| 20260508003148 | 50 | 329 | 0.0 | 2.6 | 0.00 | 0.03 | 0.03 | 63 | 1015.3 |
| 20260508002644 | 52 | 326 | 1.7 | 2.6 | 0.00 | 0.03 | 0.03 | 57 | 1015.2 |
| 20260508002143 | 53 | 313 | 1.7 | 2.6 | 0.00 | 0.03 | 0.03 | 52 | 1015.3 |
| 20260508001637 | 54 | 272 | 0.9 | 0.9 | 0.00 | 0.03 | 0.03 | 51 | 1014.9 |
| 20260508001133 | 54 | 315 | 0.0 | 2.6 | 0.00 | 0.03 | 0.03 | 46 | 1015.0 |
| 20260508000629 | 55 | 323 | 0.0 | 0.9 | 0.00 | 0.03 | 0.03 | 49 | 1014.9 |
| 20260508000127 | 55 | 297 | 0.9 | 0.9 | 0.00 | 0.03 | 0.03 | 48 | 1014.7 |
| 20260507235624 | 55 | 323 | 0.9 | 3.5 | 0.00 | 0.03 | 0.03 | 47 | 1014.7 |
| 20260507235122 | 56 | 279 | 2.6 | 3.5 | 0.00 | 0.03 | 0.03 | 46 | 1014.7 |
| 20260507234618 | 55 | 298 | 2.6 | 6.1 | 0.00 | 0.03 | 0.03 | 47 | 1014.6 |
| 20260507234114 | 55 | 302 | 0.9 | 2.6 | 0.00 | 0.03 | 0.03 | 49 | 1014.6 |
| 20260507233611 | 56 | 306 | 0.0 | 0.9 | 0.00 | 0.03 | 0.03 | 47 | 1014.5 |
| 20260507233110 | 57 | 263 | 0.9 | 2.6 | 0.00 | 0.03 | 0.03 | 46 | 1014.5 |
| 20260507232605 | 57 | 283 | 0.0 | 1.7 | 0.00 | 0.03 | 0.03 | 46 | 1014.6 |
| 20260507232103 | 56 | 319 | 0.9 | 2.6 | 0.00 | 0.03 | 0.03 | 47 | 1014.3 |
| 20260507231559 | 56 | 274 | 1.7 | 2.6 | 0.00 | 0.03 | 0.03 | 47 | 1014.5 |
| 20260507231057 | 57 | 293 | 1.7 | 3.5 | 0.00 | 0.03 | 0.03 | 45 | 1014.3 |
| 20260507230553 | 58 | 328 | 2.6 | 3.5 | 0.00 | 0.03 | 0.03 | 43 | 1014.4 |
| 20260507230050 | 58 | 267 | 1.7 | 3.5 | 0.00 | 0.03 | 0.03 | 47 | 1014.5 |
| 20260507225544 | 59 | 259 | 2.6 | 3.5 | 0.00 | 0.03 | 0.03 | 41 | 1014.1 |
| 20260507225041 | 60 | 318 | 7.8 | 11.3 | 0.00 | 0.03 | 0.03 | 44 | 1014.3 |
| 20260507224537 | 59 | 310 | 0.9 | 3.5 | 0.00 | 0.03 | 0.03 | 43 | 1014.3 |
| 20260507224034 | 58 | 338 | 2.6 | 3.5 | 0.00 | 0.03 | 0.03 | 49 | 1014.3 |
| 20260507223530 | 58 | 292 | 0.9 | 1.7 | 0.00 | 0.03 | 0.03 | 47 | 1014.2 |
| 20260507223027 | 57 | 273 | 0.9 | 2.6 | 0.00 | 0.03 | 0.03 | 46 | 1014.5 |
| 20260507222524 | 57 | 330 | 5.2 | 9.6 | 0.00 | 0.03 | 0.03 | 45 | 1014.2 |
| 20260507222020 | 58 | 334 | 6.1 | 7.8 | 0.00 | 0.03 | 0.03 | 44 | 1014.2 |
| 20260507221517 | 60 | 236 | 4.3 | 7.0 | 0.00 | 0.03 | 0.03 | 44 | 1014.2 |
| 20260507221014 | 60 | 23 | 0.0 | 7.0 | 0.00 | 0.03 | 0.03 | 44 | 1014.1 |
| 20260507220511 | 60 | 276 | 0.9 | 6.1 | 0.00 | 0.03 | 0.03 | 46 | 1014.1 |
| 20260507220008 | 60 | 7 | 5.2 | 12.2 | 0.00 | 0.03 | 0.03 | 43 | 1013.7 |
| 20260507215504 | 60 | 118 | 1.7 | 7.0 | 0.00 | 0.03 | 0.03 | 44 | 1013.7 |
| 20260507215003 | 60 | 314 | 3.5 | 7.8 | 0.00 | 0.03 | 0.03 | 46 | 1013.7 |
| 20260507214459 | 58 | 243 | 3.5 | 7.8 | 0.00 | 0.03 | 0.03 | 45 | 1013.8 |
| 20260507213955 | 59 | 332 | 4.3 | 8.7 | 0.00 | 0.03 | 0.03 | 44 | 1013.7 |
| 20260507213452 | 60 | 341 | 1.7 | 3.5 | 0.00 | 0.03 | 0.03 | 43 | 1013.8 |
| 20260507212948 | 60 | 218 | 6.1 | 7.0 | 0.00 | 0.03 | 0.03 | 47 | 1013.6 |
| 20260507212444 | 60 | 250 | 2.6 | 8.7 | 0.00 | 0.03 | 0.03 | 47 | 1013.8 |
| 20260507211942 | 61 | 218 | 7.0 | 8.7 | 0.00 | 0.03 | 0.03 | 45 | 1013.7 |
| 20260507211438 | 60 | 12 | 4.3 | 7.0 | 0.00 | 0.03 | 0.03 | 46 | 1013.4 |
| 20260507210935 | 61 | 322 | 7.8 | 11.3 | 0.00 | 0.03 | 0.03 | 47 | 1013.4 |
| 20260507210432 | 61 | 328 | 4.3 | 8.7 | 0.00 | 0.03 | 0.03 | 49 | 1013.6 |
| 20260507205928 | 60 | 286 | 5.2 | 6.1 | 0.00 | 0.03 | 0.03 | 50 | 1013.3 |
| 20260507205426 | 60 | 303 | 3.5 | 11.3 | 0.00 | 0.03 | 0.03 | 50 | 1013.5 |
| 20260507204922 | 60 | 305 | 5.2 | 7.8 | 0.00 | 0.03 | 0.03 | 46 | 1013.4 |
| 20260507204418 | 60 | 306 | 5.2 | 7.8 | 0.00 | 0.03 | 0.03 | 50 | 1013.3 |
| 20260507203916 | 61 | 247 | 2.6 | 7.0 | 0.00 | 0.03 | 0.03 | 49 | 1013.4 |
| 20260507203414 | 58 | 322 | 2.6 | 6.1 | 0.00 | 0.03 | 0.03 | 53 | 1013.4 |
| 20260507202910 | 60 | 283 | 2.6 | 5.2 | 0.00 | 0.03 | 0.03 | 47 | 1013.3 |
| 20260507202406 | 62 | 54 | 3.5 | 7.0 | 0.00 | 0.03 | 0.03 | 44 | 1013.2 |
| 20260507201902 | 61 | 249 | 2.6 | 7.8 | 0.00 | 0.03 | 0.03 | 46 | 1013.5 |
| 20260507201357 | 60 | 197 | 1.7 | 7.8 | 0.00 | 0.03 | 0.03 | 49 | 1013.4 |
| 20260507200854 | 61 | 255 | 6.1 | 8.7 | 0.00 | 0.03 | 0.03 | 50 | 1013.4 |
| 20260507200350 | 61 | 347 | 8.7 | 11.3 | 0.00 | 0.03 | 0.03 | 47 | 1013.6 |
| 20260507195846 | 59 | 225 | 1.7 | 3.5 | 0.00 | 0.03 | 0.03 | 48 | 1013.7 |
| 20260507195344 | 58 | 347 | 7.0 | 9.6 | 0.00 | 0.03 | 0.03 | 49 | 1013.9 |
| 20260507194841 | 59 | 334 | 3.5 | 3.5 | 0.00 | 0.03 | 0.03 | 49 | 1013.9 |
| 20260507194337 | 61 | 297 | 6.1 | 7.8 | 0.00 | 0.03 | 0.03 | 51 | 1013.9 |
| 20260507193834 | 61 | 308 | 0.9 | 5.2 | 0.00 | 0.03 | 0.03 | 52 | 1013.9 |
| 20260507193331 | 60 | 345 | 4.3 | 5.2 | 0.00 | 0.03 | 0.03 | 49 | 1014.0 |
| 20260507192827 | 58 | 335 | 4.3 | 8.7 | 0.00 | 0.03 | 0.03 | 51 | 1013.9 |
| 20260507192324 | 59 | 322 | 3.5 | 7.8 | 0.00 | 0.03 | 0.03 | 49 | 1013.9 |
| 20260507191820 | 59 | 40 | 2.6 | 9.6 | 0.00 | 0.03 | 0.03 | 48 | 1014.1 |
| 20260507191316 | 61 | 220 | 7.8 | 13.0 | 0.00 | 0.03 | 0.03 | 52 | 1014.0 |
| 20260507190813 | 60 | 297 | 2.6 | 5.2 | 0.00 | 0.03 | 0.03 | 49 | 1013.9 |
| 20260507190312 | 61 | 232 | 6.1 | 7.8 | 0.00 | 0.03 | 0.03 | 52 | 1014.0 |
| 20260507185810 | 60 | 349 | 6.1 | 11.3 | 0.00 | 0.03 | 0.03 | 58 | 1013.9 |
| 20260507185306 | 59 | 322 | 3.5 | 6.1 | 0.00 | 0.03 | 0.03 | 52 | 1013.9 |
| 20260507184805 | 59 | 299 | 1.7 | 7.8 | 0.00 | 0.03 | 0.03 | 48 | 1014.0 |
| 20260507184303 | 58 | 283 | 3.5 | 7.0 | 0.00 | 0.03 | 0.03 | 48 | 1014.0 |
| 20260507183759 | 59 | 307 | 5.2 | 9.6 | 0.00 | 0.03 | 0.03 | 48 | 1013.9 |
| 20260507183256 | 57 | 320 | 4.3 | 7.0 | 0.00 | 0.03 | 0.03 | 55 | 1014.2 |
| 20260507182754 | 57 | 313 | 5.2 | 7.0 | 0.00 | 0.03 | 0.03 | 54 | 1014.3 |
| 20260507182253 | 57 | 251 | 3.5 | 6.1 | 0.00 | 0.03 | 0.03 | 51 | 1014.3 |
| 20260507181751 | 57 | 297 | 0.9 | 3.5 | 0.00 | 0.03 | 0.03 | 52 | 1014.3 |
| 20260507181247 | 58 | 261 | 6.1 | 11.3 | 0.00 | 0.03 | 0.03 | 53 | 1014.4 |
| 20260507180744 | 58 | 235 | 7.8 | 13.0 | 0.00 | 0.03 | 0.03 | 58 | 1014.4 |
| 20260507180241 | 58 | 240 | 4.3 | 5.2 | 0.00 | 0.03 | 0.03 | 51 | 1014.5 |
| 20260507175736 | 59 | 333 | 0.0 | 6.1 | 0.00 | 0.03 | 0.03 | 59 | 1014.3 |
| 20260507175233 | 59 | 247 | 6.1 | 9.6 | 0.00 | 0.03 | 0.03 | 51 | 1014.4 |
| 20260507174731 | 57 | 257 | 1.7 | 3.5 | 0.00 | 0.03 | 0.03 | 55 | 1014.3 |
| 20260507174228 | 58 | 320 | 4.3 | 6.1 | 0.00 | 0.03 | 0.03 | 62 | 1014.6 |
| 20260507173726 | 58 | 214 | 4.3 | 9.6 | 0.00 | 0.03 | 0.03 | 55 | 1014.6 |
| 20260507173222 | 56 | 249 | 1.7 | 3.5 | 0.00 | 0.03 | 0.03 | 52 | 1014.7 |
| 20260507172719 | 56 | 319 | 1.7 | 3.5 | 0.00 | 0.03 | 0.03 | 56 | 1014.8 |
| 20260507172216 | 58 | 325 | 3.5 | 7.8 | 0.00 | 0.03 | 0.03 | 60 | 1014.6 |
| 20260507171716 | 58 | 235 | 0.9 | 7.8 | 0.00 | 0.03 | 0.03 | 56 | 1015.0 |
| 20260507171214 | 58 | 222 | 2.6 | 6.1 | 0.00 | 0.03 | 0.03 | 59 | 1014.7 |
| 20260507170710 | 59 | 242 | 1.7 | 8.7 | 0.00 | 0.03 | 0.03 | 55 | 1014.8 |
| 20260507170208 | 57 | 215 | 1.7 | 6.1 | 0.00 | 0.03 | 0.03 | 55 | 1015.0 |
| 20260507165703 | 56 | 204 | 5.2 | 8.7 | 0.00 | 0.03 | 0.03 | 56 | 1015.2 |
| 20260507165159 | 56 | 239 | 7.0 | 9.6 | 0.00 | 0.03 | 0.03 | 59 | 1015.0 |
| 20260507164655 | 58 | 226 | 5.2 | 7.0 | 0.00 | 0.03 | 0.03 | 58 | 1015.0 |
| 20260507164153 | 59 | 241 | 2.6 | 7.0 | 0.00 | 0.03 | 0.03 | 56 | 1014.9 |
| 20260507163650 | 58 | 315 | 4.3 | 13.0 | 0.00 | 0.03 | 0.03 | 60 | 1015.3 |
| 20260507163148 | 58 | 225 | 7.8 | 8.7 | 0.00 | 0.03 | 0.03 | 57 | 1015.3 |
| 20260507162643 | 58 | 262 | 1.7 | 7.8 | 0.00 | 0.03 | 0.03 | 55 | 1015.4 |
| 20260507162140 | 57 | 306 | 0.0 | 6.1 | 0.00 | 0.03 | 0.03 | 59 | 1015.5 |
| 20260507161636 | 56 | 21 | 2.6 | 8.7 | 0.00 | 0.03 | 0.03 | 64 | 1015.7 |
| 20260507161133 | 56 | 271 | 4.3 | 7.8 | 0.00 | 0.03 | 0.03 | 64 | 1015.5 |
| 20260507160629 | 55 | 323 | 2.6 | 5.2 | 0.00 | 0.03 | 0.03 | 64 | 1015.5 |
| 20260507160126 | 55 | 215 | 0.0 | 2.6 | 0.00 | 0.03 | 0.03 | 61 | 1015.8 |
| 20260507155621 | 57 | 336 | 3.5 | 6.1 | 0.00 | 0.03 | 0.03 | 63 | 1015.7 |
| 20260507155118 | 55 | 242 | 1.7 | 3.5 | 0.00 | 0.03 | 0.03 | 64 | 1016.0 |
| 20260507154615 | 53 | 341 | 4.3 | 6.1 | 0.00 | 0.03 | 0.03 | 66 | 1015.8 |
| 20260507154112 | 55 | 272 | 6.1 | 8.7 | 0.00 | 0.03 | 0.03 | 66 | 1015.8 |
| 20260507153609 | 55 | 341 | 0.9 | 2.6 | 0.00 | 0.03 | 0.03 | 66 | 1015.7 |
| 20260507153106 | 55 | 346 | 3.5 | 6.1 | 0.00 | 0.03 | 0.03 | 66 | 1015.7 |
| 20260507152602 | 55 | 314 | 1.7 | 3.5 | 0.00 | 0.03 | 0.03 | 62 | 1015.8 |
| 20260507152058 | 56 | 306 | 1.7 | 2.6 | 0.00 | 0.03 | 0.03 | 67 | 1015.6 |
| 20260507151554 | 55 | 259 | 0.0 | 2.6 | 0.00 | 0.03 | 0.03 | 67 | 1015.9 |
| 20260507151051 | 53 | 244 | 4.3 | 5.2 | 0.00 | 0.03 | 0.03 | 72 | 1015.9 |
| 20260507150548 | 54 | 136 | 1.7 | 2.6 | 0.00 | 0.03 | 0.03 | 67 | 1015.9 |
| 20260507150039 | 54 | 11 | 0.0 | 3.5 | 0.00 | 0.03 | 0.03 | 67 | 1016.0 |
| 20260507145533 | 54 | 312 | 0.0 | 2.6 | 0.00 | 0.03 | 0.03 | 66 | 1016.1 |
| 20260507145032 | 53 | 211 | 2.6 | 6.1 | 0.00 | 0.03 | 0.03 | 72 | 1016.1 |
| 20260507144528 | 54 | 223 | 3.5 | 3.5 | 0.00 | 0.03 | 0.03 | 67 | 1016.2 |
| 20260507144026 | 53 | 207 | 0.9 | 2.6 | 0.00 | 0.03 | 0.03 | 67 | 1016.1 |
| 20260507143523 | 53 | 216 | 0.9 | 2.6 | 0.00 | 0.03 | 0.03 | 65 | 1016.2 |
| 20260507143020 | 53 | 336 | 0.0 | 2.6 | 0.00 | 0.03 | 0.03 | 68 | 1016.3 |
| 20260507142515 | 52 | 214 | 1.7 | 3.5 | 0.00 | 0.03 | 0.03 | 67 | 1016.5 |
| 20260507142012 | 52 | 7 | 0.0 | 2.6 | 0.00 | 0.03 | 0.03 | 70 | 1016.5 |
| 20260507141508 | 52 | 218 | 0.9 | 1.7 | 0.00 | 0.03 | 0.03 | 77 | 1016.5 |
| 20260507141007 | 51 | 229 | 3.5 | 3.5 | 0.00 | 0.03 | 0.03 | 80 | 1016.7 |
| 20260507140502 | 50 | 226 | 1.7 | 2.6 | 0.00 | 0.03 | 0.03 | 78 | 1016.9 |
| 20260507135959 | 51 | 213 | 3.5 | 3.5 | 0.00 | 0.03 | 0.03 | 81 | 1016.8 |
| 20260507135456 | 51 | 334 | 0.9 | 2.6 | 0.00 | 0.03 | 0.03 | 80 | 1016.6 |
| 20260507134953 | 51 | 231 | 0.0 | 0.9 | 0.00 | 0.03 | 0.03 | 82 | 1016.8 |
| 20260507134449 | 51 | 233 | 1.7 | 1.7 | 0.00 | 0.03 | 0.03 | 80 | 1016.8 |
| 20260507133946 | 50 | 271 | 0.0 | 2.6 | 0.00 | 0.03 | 0.03 | 81 | 1016.8 |
| 20260507133442 | 50 | 242 | 1.7 | 2.6 | 0.00 | 0.03 | 0.03 | 83 | 1016.8 |
| 20260507132941 | 51 | 248 | 0.0 | 1.7 | 0.00 | 0.03 | 0.03 | 83 | 1017.0 |
| 20260507132436 | 50 | 166 | 0.0 | 0.0 | 0.00 | 0.03 | 0.03 | 84 | 1016.9 |
| 20260507131933 | 50 | 215 | 0.9 | 1.7 | 0.00 | 0.03 | 0.03 | 85 | 1016.8 |
| 20260507131430 | 49 | 234 | 0.0 | 2.6 | 0.00 | 0.03 | 0.03 | 84 | 1017.0 |
| 20260507130927 | 50 | 245 | 0.0 | 0.0 | 0.00 | 0.03 | 0.03 | 85 | 1017.1 |
| 20260507130424 | 50 | 273 | 0.0 | 0.0 | 0.00 | 0.03 | 0.03 | 86 | 1017.0 |
| 20260507125923 | 49 | 274 | 0.0 | 0.0 | 0.00 | 0.03 | 0.03 | 87 | 1017.0 |
| 20260507125420 | 49 | 296 | 0.0 | 0.0 | 0.00 | 0.03 | 0.03 | 87 | 1017.1 |
| 20260507124918 | 49 | 241 | 0.0 | 0.0 | 0.00 | 0.03 | 0.03 | 88 | 1017.1 |
| 20260507124413 | 48 | 265 | 0.0 | 0.0 | 0.00 | 0.03 | 0.03 | 89 | 1017.0 |
| 20260507123912 | 48 | 216 | 0.0 | 0.0 | 0.00 | 0.03 | 0.03 | 90 | 1017.1 |
| 20260507123409 | 48 | 238 | 0.9 | 2.6 | 0.00 | 0.03 | 0.03 | 91 | 1017.1 |
| 20260507122905 | 48 | 226 | 0.0 | 0.0 | 0.00 | 0.03 | 0.03 | 91 | 1017.1 |
| 20260507122400 | 48 | 250 | 1.7 | 1.7 | 0.00 | 0.03 | 0.03 | 92 | 1017.3 |
| 20260507121857 | 48 | 247 | 1.7 | 2.6 | 0.00 | 0.03 | 0.03 | 92 | 1017.3 |
| 20260507121352 | 48 | 219 | 0.9 | 1.7 | 0.00 | 0.03 | 0.03 | 92 | 1017.0 |
| 20260507120849 | 48 | 231 | 0.0 | 1.7 | 0.00 | 0.03 | 0.03 | 92 | 1017.0 |
| 20260507120346 | 47 | 230 | 0.0 | 0.0 | 0.00 | 0.03 | 0.03 | 93 | 1016.8 |
| 20260507115842 | 47 | 219 | 0.0 | 0.9 | 0.00 | 0.03 | 0.03 | 93 | 1017.0 |
| 20260507115338 | 47 | 216 | 0.9 | 1.7 | 0.00 | 0.03 | 0.03 | 93 | 1016.8 |
| 20260507114833 | 47 | 232 | 0.0 | 0.9 | 0.00 | 0.03 | 0.03 | 93 | 1016.8 |
| 20260507114331 | 47 | 240 | 1.7 | 1.7 | 0.00 | 0.03 | 0.03 | 93 | 1016.9 |
| 20260507113828 | 47 | 229 | 0.0 | 0.0 | 0.00 | 0.03 | 0.03 | 94 | 1016.8 |
| 20260507113325 | 47 | 242 | 0.0 | 0.0 | 0.00 | 0.03 | 0.03 | 94 | 1016.6 |
| 20260507112823 | 47 | 268 | 0.0 | 0.9 | 0.00 | 0.03 | 0.03 | 94 | 1016.6 |
| 20260507112319 | 47 | 269 | 0.0 | 0.0 | 0.00 | 0.03 | 0.03 | 94 | 1016.4 |
| 20260507111818 | 47 | 288 | 0.0 | 0.0 | 0.00 | 0.03 | 0.03 | 94 | 1016.3 |
| 20260507111314 | 47 | 305 | 0.0 | 0.0 | 0.00 | 0.03 | 0.03 | 94 | 1016.4 |
| 20260507110810 | 47 | 308 | 0.0 | 0.0 | 0.00 | 0.03 | 0.03 | 94 | 1016.4 |
| 20260507110306 | 47 | 307 | 0.0 | 0.0 | 0.00 | 0.03 | 0.03 | 94 | 1016.3 |
| 20260507105803 | 47 | 307 | 0.0 | 0.0 | 0.00 | 0.03 | 0.03 | 94 | 1016.3 |
| 20260507105259 | 47 | 306 | 0.0 | 0.0 | 0.00 | 0.03 | 0.03 | 94 | 1016.4 |
| 20260507104757 | 47 | 305 | 0.0 | 0.0 | 0.00 | 0.03 | 0.03 | 94 | 1016.2 |
| 20260507104253 | 47 | 271 | 0.0 | 0.0 | 0.00 | 0.03 | 0.03 | 94 | 1016.0 |
| 20260507103749 | 47 | 263 | 0.0 | 0.0 | 0.00 | 0.03 | 0.03 | 94 | 1016.0 |
| 20260507103245 | 47 | 255 | 0.0 | 0.0 | 0.00 | 0.03 | 0.03 | 94 | 1016.3 |
| 20260507102742 | 47 | 257 | 0.0 | 0.0 | 0.00 | 0.03 | 0.03 | 94 | 1016.1 |
| 20260507102239 | 47 | 260 | 0.0 | 0.9 | 0.00 | 0.03 | 0.03 | 94 | 1016.0 |
| 20260507101735 | 47 | 259 | 0.0 | 0.0 | 0.00 | 0.03 | 0.03 | 94 | 1016.1 |
| 20260507101230 | 47 | 248 | 0.0 | 0.0 | 0.00 | 0.03 | 0.03 | 94 | 1016.2 |
| 20260507100727 | 47 | 258 | 0.0 | 0.0 | 0.00 | 0.03 | 0.03 | 94 | 1016.0 |
| 20260507100226 | 47 | 255 | 0.0 | 0.0 | 0.00 | 0.03 | 0.03 | 94 | 1015.8 |
| 20260507095724 | 47 | 255 | 0.0 | 0.0 | 0.00 | 0.03 | 0.03 | 94 | 1016.0 |
| 20260507095220 | 47 | 253 | 0.0 | 0.0 | 0.00 | 0.03 | 0.03 | 94 | 1015.9 |
| 20260507094717 | 47 | 250 | 0.0 | 0.0 | 0.00 | 0.03 | 0.03 | 94 | 1016.0 |
| 20260507094214 | 47 | 247 | 0.0 | 0.0 | 0.00 | 0.03 | 0.03 | 94 | 1015.8 |
| 20260507093711 | 47 | 250 | 0.0 | 0.0 | 0.00 | 0.03 | 0.03 | 94 | 1016.0 |
| 20260507093209 | 47 | 253 | 0.0 | 0.0 | 0.00 | 0.03 | 0.03 | 94 | 1015.9 |
| 20260507092706 | 47 | 252 | 0.0 | 0.9 | 0.00 | 0.03 | 0.03 | 94 | 1015.8 |
| 20260507092202 | 47 | 267 | 0.0 | 0.0 | 0.00 | 0.03 | 0.03 | 94 | 1015.9 |
| 20260507091659 | 47 | 286 | 0.0 | 0.0 | 0.00 | 0.03 | 0.03 | 94 | 1015.8 |
| 20260507091155 | 47 | 286 | 0.0 | 0.0 | 0.00 | 0.03 | 0.03 | 94 | 1015.9 |
| 20260507090651 | 47 | 286 | 0.0 | 0.0 | 0.00 | 0.03 | 0.03 | 94 | 1015.6 |
| 20260507090148 | 47 | 286 | 0.0 | 0.0 | 0.00 | 0.03 | 0.03 | 94 | 1015.7 |
| 20260507085645 | 47 | 246 | 0.0 | 0.0 | 0.00 | 0.03 | 0.03 | 94 | 1015.8 |
| 20260507085142 | 47 | 246 | 0.0 | 0.0 | 0.00 | 0.03 | 0.03 | 94 | 1015.6 |
| 20260507084639 | 47 | 246 | 0.0 | 0.0 | 0.00 | 0.03 | 0.03 | 94 | 1015.8 |
| 20260507084135 | 47 | 246 | 0.0 | 0.0 | 0.00 | 0.03 | 0.03 | 94 | 1015.8 |
| 20260507083632 | 47 | 246 | 0.0 | 0.0 | 0.00 | 0.03 | 0.03 | 94 | 1015.9 |
| 20260507083129 | 48 | 288 | 0.0 | 0.0 | 0.00 | 0.03 | 0.03 | 94 | 1015.8 |
| 20260507082625 | 48 | 288 | 0.0 | 0.0 | 0.00 | 0.03 | 0.03 | 94 | 1015.7 |
| 20260507082121 | 48 | 288 | 0.0 | 0.0 | 0.00 | 0.03 | 0.03 | 93 | 1015.8 |
| 20260507081618 | 48 | 288 | 0.0 | 0.0 | 0.00 | 0.03 | 0.03 | 93 | 1016.0 |
| 20260507081115 | 48 | 288 | 0.0 | 0.0 | 0.00 | 0.03 | 0.03 | 93 | 1016.0 |
| 20260507080611 | 48 | 288 | 0.0 | 0.0 | 0.00 | 0.03 | 0.03 | 93 | 1015.9 |
| 20260507080108 | 48 | 288 | 0.0 | 0.0 | 0.00 | 0.03 | 0.03 | 93 | 1016.0 |
| 20260507075602 | 48 | 288 | 0.0 | 0.0 | 0.00 | 0.03 | 0.03 | 93 | 1016.1 |
| 20260507075059 | 48 | 262 | 0.0 | 0.0 | 0.00 | 0.03 | 0.03 | 93 | 1015.9 |
| 20260507074556 | 48 | 299 | 0.0 | 0.0 | 0.00 | 0.03 | 0.03 | 93 | 1015.9 |
| 20260507074054 | 48 | 264 | 0.0 | 0.0 | 0.00 | 0.03 | 0.03 | 93 | 1015.9 |
| 20260507073550 | 48 | 260 | 0.0 | 0.0 | 0.00 | 0.03 | 0.03 | 93 | 1016.0 |
| 20260507073047 | 48 | 265 | 0.0 | 0.0 | 0.00 | 0.03 | 0.03 | 93 | 1015.9 |
| 20260507072544 | 48 | 282 | 0.0 | 0.0 | 0.00 | 0.03 | 0.03 | 93 | 1016.0 |
| 20260507072041 | 48 | 229 | 2.6 | 2.6 | 0.00 | 0.03 | 0.03 | 93 | 1016.0 |
| 20260507071539 | 48 | 302 | 0.0 | 0.0 | 0.00 | 0.03 | 0.03 | 93 | 1015.9 |
| 20260507071035 | 48 | 307 | 0.0 | 0.9 | 0.00 | 0.03 | 0.03 | 93 | 1015.8 |
| 20260507070532 | 49 | 297 | 0.0 | 0.0 | 0.05 | 0.03 | 0.03 | 93 | 1015.9 |
| 20260507070030 | 49 | 273 | 0.0 | 0.0 | 0.05 | 0.03 | 0.03 | 93 | 1015.8 |
| 20260507065526 | 48 | 291 | 0.0 | 0.0 | 0.00 | 0.02 | 0.02 | 93 | 1016.0 |
| 20260507065023 | 49 | 267 | 0.0 | 0.0 | 0.00 | 0.02 | 0.02 | 93 | 1015.8 |
| 20260507064521 | 49 | 265 | 0.0 | 0.0 | 0.00 | 0.02 | 0.02 | 93 | 1016.0 |
| 20260507064019 | 49 | 313 | 1.7 | 1.7 | 0.00 | 0.02 | 0.02 | 93 | 1016.0 |
| 20260507063516 | 49 | 238 | 2.6 | 2.6 | 0.00 | 0.02 | 0.02 | 93 | 1015.8 |
| 20260507063013 | 49 | 283 | 0.9 | 1.7 | 0.00 | 0.02 | 0.02 | 93 | 1016.0 |
| 20260507062510 | 49 | 250 | 1.7 | 1.7 | 0.00 | 0.02 | 0.02 | 93 | 1015.6 |
| 20260507062008 | 49 | 252 | 0.0 | 0.0 | 0.00 | 0.02 | 0.02 | 93 | 1015.6 |
| 20260507061505 | 49 | 226 | 0.0 | 0.0 | 0.00 | 0.02 | 0.02 | 93 | 1015.7 |
| 20260507061003 | 49 | 226 | 0.0 | 0.0 | 0.00 | 0.02 | 0.02 | 93 | 1015.9 |
| 20260507060500 | 49 | 227 | 0.0 | 0.0 | 0.00 | 0.02 | 0.02 | 93 | 1016.0 |
| 20260507055956 | 49 | 227 | 0.0 | 0.0 | 0.00 | 0.02 | 0.02 | 93 | 1016.1 |
| 20260507055452 | 49 | 227 | 0.0 | 0.0 | 0.00 | 0.02 | 0.02 | 93 | 1016.1 |
| 20260507054949 | 49 | 227 | 0.0 | 0.0 | 0.00 | 0.02 | 0.02 | 93 | 1016.1 |
| 20260507054444 | 49 | 227 | 0.0 | 0.0 | 0.00 | 0.02 | 0.02 | 93 | 1016.1 |
| 20260507053942 | 49 | 220 | 0.0 | 0.9 | 0.00 | 0.02 | 0.02 | 94 | 1016.1 |
| 20260507053440 | 49 | 243 | 0.9 | 1.7 | 0.07 | 0.02 | 0.02 | 94 | 1016.2 |
| 20260507052938 | 49 | 262 | 0.0 | 0.0 | 0.07 | 0.02 | 0.02 | 94 | 1016.2 |
| 20260507052435 | 49 | 275 | 0.0 | 1.7 | 0.00 | 0.01 | 0.01 | 94 | 1016.3 |
| 20260507051932 | 50 | 306 | 0.0 | 0.0 | 0.00 | 0.01 | 0.01 | 94 | 1016.3 |
| 20260507051430 | 50 | 266 | 0.0 | 0.0 | 0.00 | 0.01 | 0.01 | 94 | 1016.5 |
| 20260507050926 | 50 | 278 | 0.0 | 0.0 | 0.00 | 0.01 | 0.01 | 94 | 1016.4 |
| 20260507050423 | 50 | 278 | 0.0 | 0.0 | 0.00 | 0.01 | 0.01 | 94 | 1016.4 |
| 20260507045920 | 50 | 278 | 0.0 | 0.0 | 0.07 | 0.01 | 0.01 | 94 | 1016.3 |
| 20260507045416 | 50 | 284 | 0.0 | 0.0 | 0.00 | 0.00 | 0.00 | 94 | 1016.5 |
| 20260507044914 | 50 | 329 | 0.0 | 0.0 | 0.00 | 0.00 | 0.00 | 94 | 1016.3 |
| 20260507044410 | 50 | 329 | 0.0 | 0.0 | 0.00 | 0.00 | 0.00 | 94 | 1016.1 |
| 20260507043906 | 50 | 242 | 0.0 | 0.0 | 0.00 | 0.00 | 0.00 | 94 | 1016.4 |
| 20260507043403 | 50 | 114 | 0.0 | 0.0 | 0.00 | 0.00 | 0.00 | 94 | 1016.3 |
| 20260507042859 | 50 | 114 | 0.0 | 0.0 | 0.00 | 0.00 | 0.00 | 94 | 1016.3 |
| 20260507042355 | 50 | 114 | 0.0 | 0.0 | 0.00 | 0.00 | 0.00 | 94 | 1016.2 |
| 20260507041852 | 50 | 114 | 0.0 | 0.0 | 0.00 | 0.00 | 0.00 | 94 | 1016.1 |
| 20260507041348 | 50 | 114 | 0.0 | 0.0 | 0.00 | 0.00 | 0.00 | 94 | 1016.1 |
| 20260507040846 | 50 | 114 | 0.0 | 0.9 | 0.00 | 0.00 | 0.00 | 94 | 1016.1 |
| 20260507040342 | 50 | 107 | 0.0 | 0.0 | 0.00 | 0.46 | 0.46 | 94 | 1016.3 |
| 20260507035838 | 50 | 113 | 0.0 | 0.0 | 0.00 | 0.46 | 0.46 | 93 | 1016.0 |
| 20260507035333 | 50 | 113 | 0.0 | 0.0 | 0.00 | 0.46 | 0.46 | 93 | 1016.0 |
| 20260507034831 | 50 | 113 | 0.0 | 0.0 | 0.00 | 0.46 | 0.46 | 93 | 1016.1 |
| 20260507034328 | 50 | 113 | 0.0 | 0.0 | 0.00 | 0.46 | 0.46 | 93 | 1015.9 |